TimeEST,TemperatureF,Dew PointF,Humidity,Sea Level PressureIn,VisibilityMPH,Wind Direction,Wind SpeedMPH,Gust SpeedMPH,PrecipitationIn,Events,Conditions,WindDirDegrees,DateUTC
12:15 AM,35.6,33.8,93,30.31,10.0,WSW,3.5,-,N/A,,Light Drizzle,240,2012-12-04 05:15:00
12:35 AM,35.6,35.6,100,30.31,10.0,Calm,Calm,-,N/A,,Light Drizzle,0,2012-12-04 05:35:00
12:55 AM,35.6,33.8,93,30.31,10.0,Calm,Calm,-,N/A,,Light Drizzle,0,2012-12-04 05:55:00
1:15 AM,35.6,33.8,93,30.31,10.0,WSW,4.6,-,N/A,,Light Drizzle,250,2012-12-04 06:15:00
1:35 AM,35.6,33.8,93,30.31,10.0,Calm,Calm,-,N/A,,Light Drizzle,0,2012-12-04 06:35:00
1:55 AM,35.6,33.8,93,30.32,10.0,Calm,Calm,-,N/A,,Light Drizzle,0,2012-12-04 06:55:00
2:15 AM,33.8,33.8,100,30.31,10.0,Calm,Calm,-,N/A,,Light Drizzle,0,2012-12-04 07:15:00
2:35 AM,33.8,32.0,93,30.31,10.0,Calm,Calm,-,N/A,,Light Drizzle,0,2012-12-04 07:35:00
2:55 AM,33.8,32.0,93,30.31,0.5,Calm,Calm,-,N/A,,Light Drizzle,0,2012-12-04 07:55:00
3:15 AM,33.8,32.0,93,30.31,0.2,Calm,Calm,-,N/A,,Light Drizzle,0,2012-12-04 08:15:00
3:35 AM,33.8,32.0,93,30.31,0.2,WSW,3.5,-,N/A,,Light Drizzle,250,2012-12-04 08:35:00
3:55 AM,32.0,32.0,100,30.31,0.5,WSW,3.5,-,N/A,,Light Drizzle,250,2012-12-04 08:55:00
4:15 AM,32.0,32.0,100,30.32,0.8,Calm,Calm,-,N/A,,Light Drizzle,0,2012-12-04 09:15:00
4:35 AM,32.0,32.0,100,30.32,1.0,Calm,Calm,-,N/A,,Light Drizzle,0,2012-12-04 09:35:00
4:55 AM,32.0,32.0,100,30.32,0.8,Calm,Calm,-,N/A,,Light Drizzle,0,2012-12-04 09:55:00
5:15 AM,32.0,32.0,100,30.32,0.2,Calm,Calm,-,N/A,,Light Drizzle,0,2012-12-04 10:15:00
5:35 AM,32.0,32.0,100,30.32,0.5,WSW,3.5,-,N/A,,Light Drizzle,250,2012-12-04 10:35:00
5:55 AM,33.8,32.0,93,30.33,3.0,Calm,Calm,-,N/A,,Light Drizzle,0,2012-12-04 10:55:00
6:15 AM,33.8,32.0,93,30.34,1.2,Calm,Calm,-,N/A,,Light Drizzle,0,2012-12-04 11:15:00
6:35 AM,32.0,32.0,100,30.34,0.5,Calm,Calm,-,N/A,,Light Drizzle,0,2012-12-04 11:35:00
6:55 AM,32.0,32.0,100,30.34,3.0,Calm,Calm,-,N/A,,Light Drizzle,0,2012-12-04 11:55:00
7:15 AM,32.0,32.0,100,30.34,0.5,WSW,3.5,-,N/A,,Light Drizzle,240,2012-12-04 12:15:00
7:35 AM,33.8,32.0,93,30.34,0.2,Calm,Calm,-,N/A,,Light Drizzle,0,2012-12-04 12:35:00
7:55 AM,33.8,33.8,100,30.34,0.8,Calm,Calm,-,N/A,,Drizzle,0,2012-12-04 12:55:00
8:15 AM,37.4,37.4,100,30.34,0.2,South,3.5,-,N/A,,Drizzle,170,2012-12-04 13:15:00
8:35 AM,42.8,42.8,100,30.33,0.2,SSE,3.5,-,N/A,,Drizzle,160,2012-12-04 13:35:00
8:55 AM,44.6,44.6,100,30.33,1.2,SE,6.9,-,N/A,,Drizzle,130,2012-12-04 13:55:00
9:15 AM,46.4,46.4,100,30.33,10.0,SSE,8.1,-,N/A,,Drizzle,150,2012-12-04 14:15:00
9:35 AM,48.2,46.4,93,30.33,10.0,SE,4.6,-,N/A,,Drizzle,130,2012-12-04 14:35:00
9:55 AM,48.2,48.2,100,30.32,10.0,SSE,4.6,-,N/A,,Light Drizzle,160,2012-12-04 14:55:00
10:15 AM,50.0,48.2,94,30.32,10.0,South,6.9,-,N/A,,Light Drizzle,170,2012-12-04 15:15:00
10:55 AM,51.8,48.2,88,30.31,10.0,South,8.1,-,N/A,,Overcast,170,2012-12-04 15:55:00
11:15 AM,51.8,48.2,88,30.29,10.0,South,4.6,-,N/A,,Overcast,190,2012-12-04 16:15:00
11:35 AM,51.8,48.2,88,30.28,10.0,South,6.9,-,N/A,,Overcast,180,2012-12-04 16:35:00
11:55 AM,51.8,48.2,88,30.27,10.0,South,4.6,-,N/A,,Overcast,170,2012-12-04 16:55:00
12:15 PM,51.8,48.2,88,30.27,10.0,South,4.6,-,N/A,,Overcast,180,2012-12-04 17:15:00
12:35 PM,51.8,48.2,88,30.26,10.0,SSE,6.9,-,N/A,,Overcast,160,2012-12-04 17:35:00
12:55 PM,53.6,48.2,82,30.24,10.0,SSE,6.9,-,N/A,,Overcast,160,2012-12-04 17:55:00
1:15 PM,53.6,48.2,82,30.24,10.0,South,5.8,-,N/A,,Mostly Cloudy,180,2012-12-04 18:15:00
1:35 PM,55.4,48.2,77,30.23,10.0,South,5.8,-,N/A,,Overcast,170,2012-12-04 18:35:00
1:55 PM,55.4,48.2,77,30.22,10.0,South,6.9,-,N/A,,Overcast,180,2012-12-04 18:55:00
2:15 PM,55.4,50.0,82,30.22,10.0,South,6.9,-,N/A,,Overcast,180,2012-12-04 19:15:00
2:35 PM,55.4,50.0,82,30.21,10.0,South,8.1,-,N/A,,Overcast,170,2012-12-04 19:35:00
2:55 PM,55.4,50.0,82,30.21,10.0,South,6.9,-,N/A,,Overcast,190,2012-12-04 19:55:00
3:15 PM,55.4,50.0,82,30.21,10.0,South,5.8,-,N/A,Rain,Light Rain,180,2012-12-04 20:15:00
3:35 PM,55.4,51.8,88,30.20,10.0,South,4.6,-,N/A,,Overcast,180,2012-12-04 20:35:00
3:55 PM,55.4,51.8,88,30.20,10.0,South,5.8,-,N/A,,Mostly Cloudy,170,2012-12-04 20:55:00
4:15 PM,55.4,51.8,88,30.19,9.0,South,6.9,-,N/A,Rain,Light Rain,170,2012-12-04 21:15:00
4:35 PM,53.6,51.8,94,30.19,10.0,South,8.1,-,N/A,,Mostly Cloudy,170,2012-12-04 21:35:00
4:55 PM,53.6,51.8,94,30.19,10.0,South,6.9,-,N/A,,Mostly Cloudy,180,2012-12-04 21:55:00
5:15 PM,53.6,51.8,94,30.19,10.0,South,8.1,-,N/A,,Overcast,180,2012-12-04 22:15:00
5:35 PM,53.6,51.8,94,30.18,10.0,South,8.1,-,N/A,,Overcast,170,2012-12-04 22:35:00
5:55 PM,55.4,51.8,88,30.17,10.0,South,8.1,-,N/A,,Overcast,180,2012-12-04 22:55:00
6:15 PM,55.4,51.8,88,30.17,10.0,South,8.1,16.1,N/A,,Overcast,180,2012-12-04 23:15:00
6:35 PM,55.4,50.0,82,30.16,10.0,South,9.2,16.1,N/A,,Overcast,180,2012-12-04 23:35:00
6:55 PM,55.4,51.8,88,30.15,10.0,South,11.5,16.1,N/A,,Overcast,180,2012-12-04 23:55:00
7:15 PM,55.4,51.8,88,30.15,10.0,South,11.5,21.9,N/A,,Overcast,180,2012-12-05 00:15:00
7:35 PM,55.4,51.8,88,30.14,10.0,South,9.2,16.1,N/A,,Overcast,180,2012-12-05 00:35:00
7:55 PM,55.4,51.8,88,30.13,10.0,South,5.8,-,N/A,,Overcast,180,2012-12-05 00:55:00
8:15 PM,55.4,51.8,88,30.13,10.0,South,10.4,-,N/A,,Overcast,170,2012-12-05 01:15:00
8:35 PM,55.4,51.8,88,30.11,10.0,South,9.2,16.1,N/A,,Overcast,170,2012-12-05 01:35:00
8:55 PM,55.4,51.8,88,30.10,10.0,South,9.2,-,N/A,,Scattered Clouds,170,2012-12-05 01:55:00
9:15 PM,53.6,51.8,94,30.10,10.0,South,9.2,-,N/A,,Clear,170,2012-12-05 02:15:00
9:35 PM,55.4,51.8,88,30.09,10.0,South,10.4,16.1,N/A,,Clear,170,2012-12-05 02:35:00
9:55 PM,55.4,51.8,88,30.07,10.0,SSE,10.4,-,N/A,,Clear,160,2012-12-05 02:55:00
10:15 PM,55.4,51.8,88,30.06,10.0,South,11.5,18.4,N/A,,Clear,170,2012-12-05 03:15:00
10:35 PM,55.4,51.8,88,30.05,10.0,South,10.4,17.3,N/A,,Clear,170,2012-12-05 03:35:00
10:55 PM,55.4,51.8,88,30.05,10.0,South,9.2,18.4,N/A,,Clear,170,2012-12-05 03:55:00
11:15 PM,55.4,51.8,88,30.04,10.0,South,6.9,17.3,N/A,,Clear,170,2012-12-05 04:15:00
11:35 PM,55.4,51.8,88,30.03,10.0,South,9.2,16.1,N/A,,Clear,170,2012-12-05 04:35:00
11:55 PM,55.4,53.6,94,30.02,10.0,South,8.1,17.3,N/A,,Clear,180,2012-12-05 04:55:00